Terminal Aerodrome Forecast
Issued by NWS Amarillo, TX

Home | Current Version | Previous Version | Text Only | Print | Product List | Glossary On
Versions: 1 2 3 4 5 6 7 8 9 10 11 12 13 14
996
FTUS44 KAMA 281720
TAFDHT
TAF
KDHT 281720Z 2818/2918 23010KT P6SM VCSH SCT100
     FM282000 29013KT 6SM -SHRA SCT010 BKN030
     FM291300 01022G32KT 3SM -SN OVC009=

USA.gov is the U.S. government's official web portal to all federal, state and local government web resources and services.